Vremea acum in Baia Mare - Romania

Vrei sa afli care e starea vremii acum in Maramures - Romania? Dorim sa iti furnizam starea vremii pentru Maramures - Romania. Starea vremii Maramures - Romania pentru astazi.

Vremea acum in Baia Mare

Temperatura: 13 °C

Se simte ca: 13.5 °C
Innorat: 75 %
Precipitatii: 69 %
Presiune atmosferica: 1020 hPa
Umiditate: 88%
Vizibilitate: 6 km
Vantul bate din ENE cu 4 km/h

Evolutia vremii in Baia Mare pe ore

Ora: 21:00
Ploi uşoare şi de scurtă durată
Temperatura: 13.3°C
Sansa de precipitatii: 69%
Ora Descriere Temp Se simte Precipitatii Umiditate Vant
00:00Noros13.4°13.6°0%69%E 3.6 KM/H
01:00Parțial noros13.1°13.2°0%70%E 2.5 KM/H
02:00Noros12.9°12.9°0%71%ENE 1.4 KM/H
03:00Burniță uşoară pe porțiuni12.8°12.8°21%73%ENE 1.1 KM/H
04:00Noros12.6°12.6°43%75%NE 0.7 KM/H
05:00Burniță uşoară pe porțiuni12.5°12.5°64%76%NE 0.4 KM/H
06:00Burniță uşoară12.7°12.7°64%77%ESE 1.1 KM/H
07:00Burniță uşoară pe porțiuni12.8°12.8°63%77%S 1.4 KM/H
08:00Burniță uşoară13°13°63%78%WSW 2.2 KM/H
09:00Ploi uşoare şi de scurtă durată14.2°14.2°75%75%W 3.2 KM/H
10:00Burniță uşoară15.5°15.5°87%72%WNW 4.3 KM/H
11:00Ploi uşoare şi de scurtă durată16.7°16.7°99%68%WNW 5.4 KM/H
12:00Ploi uşoare şi de scurtă durată17.4°17.4°89%65%WNW 6.5 KM/H
13:00Ploi uşoare şi de scurtă durată18°18°79%62%WNW 7.2 KM/H
14:00Ploi uşoare şi de scurtă durată18.7°18.7°69%59%WNW 8.3 KM/H
15:00Ploi uşoare şi de scurtă durată17.8°17.8°79%63%WNW 7.6 KM/H
16:00Ploi uşoare şi de scurtă durată16.9°16.9°89%67%WNW 7.2 KM/H
17:00Ploi uşoare şi de scurtă durată16°16°99%71%WNW 6.5 KM/H
18:00Burniță uşoară15.2°15.2°89%74%WNW 5 KM/H
19:00Ploi uşoare şi de scurtă durată14.4°14.4°80%77%NW 4 KM/H
20:00Burniță uşoară13.6°13.6°70%80%NW 2.5 KM/H
21:00Ploi uşoare şi de scurtă durată13.3°13.3°69%82%SW 1.8 KM/H
22:00Burniță uşoară12.9°12.9°67%84%SSE 1.1 KM/H
23:00Ploi uşoare şi de scurtă durată12.6°12.6°66%85%ENE 0.4 KM/H